Time;durP1;ratioP1;P1;durP2;ratioP2;P2;SDS_P1;SDS_P2;PMS_P1;PMS_P2;Temp;Humidity;BMP_temperature;BMP_pressure;BME280_temperature;BME280_humidity;BME280_pressure;Samples;Min_cycle;Max_cycle;Signal;HPM_P1;HPM_P2
2022/11/16 00:02:43;;;;;;;18.50;10.68;;;10.10;62.30;;;8.86;62.76;100535.75;12175891;19;20417;-86
2022/11/16 00:06:47;;;;;;;14.85;10.15;;;10.00;62.20;;;8.80;62.68;100519.59;12173532;19;20033;-86
2022/11/16 00:10:50;;;;;;;15.70;10.73;;;10.00;62.30;;;8.84;62.76;100519.38;12176659;19;20018;-86
2022/11/16 00:14:52;;;;;;;22.48;13.45;;;10.00;62.30;;;8.49;62.63;100458.69;12176523;19;20978;-87
2022/11/16 00:19:00;;;;;;;15.75;10.45;;;10.00;62.60;;;8.81;62.85;100526.50;12181599;19;20307;-87
2022/11/16 00:23:02;;;;;;;17.33;11.68;;;10.20;62.40;;;8.84;62.87;100527.19;12177413;19;20507;-87
2022/11/16 00:27:04;;;;;;;17.65;11.52;;;10.00;62.30;;;8.77;62.83;100520.59;12175867;19;20022;-86
2022/11/16 00:31:06;;;;;;;20.17;12.98;;;9.90;62.40;;;8.62;62.72;100490.16;12176307;19;20022;-86
2022/11/16 00:35:08;;;;;;;18.38;12.48;;;9.90;62.90;;;8.67;62.98;100515.94;12169839;19;20020;-86
2022/11/16 00:39:15;;;;;;;17.42;11.75;;;9.90;62.60;;;8.70;63.00;100511.44;12178168;19;20010;-86
2022/11/16 00:43:17;;;;;;;18.15;10.40;;;9.90;62.60;;;8.63;63.05;100504.84;12177781;19;20440;-86
2022/11/16 00:47:19;;;;;;;19.55;12.85;;;9.90;62.60;;;8.68;62.87;100499.41;12175528;19;20287;-86
2022/11/16 00:51:21;;;;;;;21.73;14.27;;;10.10;63.10;;;8.63;62.89;100497.03;12173680;19;20909;-86
2022/11/16 00:55:23;;;;;;;19.27;12.68;;;9.80;63.00;;;8.71;62.96;100502.69;12171069;19;20283;-86
2022/11/16 00:59:25;;;;;;;18.38;12.48;;;9.80;62.70;;;8.67;63.01;100498.56;12176083;19;20037;-86
2022/11/16 01:03:32;;;;;;;18.30;11.88;;;9.80;62.80;;;8.53;63.00;100469.78;12165767;19;20043;-85
2022/11/16 01:07:36;;;;;;;18.15;12.82;;;9.80;62.60;;;8.50;62.85;100468.19;12168020;19;20894;-86
2022/11/16 01:15:58;;;;;;;19.63;12.25;;;9.80;63.20;;;8.53;62.96;100472.38;12163944;19;20014;-85
2022/11/16 01:20:00;;;;;;;17.35;11.73;;;9.70;62.80;;;8.47;63.23;100470.09;12163398;19;20291;-85
2022/11/16 01:24:02;;;;;;;21.42;13.05;;;9.70;62.80;;;8.45;63.12;100464.13;12161292;19;20018;-85
2022/11/16 01:28:04;;;;;;;20.85;13.63;;;9.70;62.90;;;8.18;63.17;100433.34;12158971;19;20105;-85
2022/11/16 01:32:17;;;;;;;17.33;11.48;;;9.60;63.20;;;8.31;63.12;100470.00;12161407;19;20307;-85
2022/11/16 01:36:19;;;;;;;18.52;11.73;;;9.60;63.10;;;8.34;63.07;100482.84;12158493;19;20591;-85
2022/11/16 01:40:21;;;;;;;14.63;10.02;;;9.60;62.90;;;8.33;63.25;100484.63;12162491;19;20038;-85
2022/11/16 01:44:32;;;;;;;16.77;10.50;;;9.60;62.90;;;8.36;63.29;100486.22;12160215;19;20030;-84
2022/11/16 01:48:48;;;;;;;18.70;11.48;;;9.60;62.90;;;8.34;63.20;100469.84;12158919;19;20018;-85
2022/11/16 01:53:01;;;;;;;15.90;9.88;;;9.50;63.00;;;8.33;63.10;100468.16;12159206;19;20021;-85
2022/11/16 01:57:15;;;;;;;18.83;12.07;;;9.60;63.30;;;8.35;63.36;100474.16;12160736;19;20496;-85
2022/11/16 02:01:30;;;;;;;17.92;11.35;;;9.50;63.20;;;8.24;63.11;100445.22;12158849;19;20026;-85
2022/11/16 02:06:08;;;;;;;15.02;9.98;;;9.60;63.10;;;8.38;63.26;100474.81;12153720;19;21022;-85
2022/11/16 02:10:51;;;;;;;16.95;10.10;;;9.50;62.70;;;8.38;63.30;100473.97;12151653;19;20022;-85
2022/11/16 02:15:19;;;;;;;16.00;9.95;;;9.50;62.80;;;8.42;63.10;100467.72;12150720;19;20010;-85
2022/11/16 02:19:50;;;;;;;12.52;9.07;;;9.50;62.60;;;8.38;63.07;100461.81;12153275;19;21065;-85
2022/11/16 02:24:24;;;;;;;;;;;9.60;62.70;;;8.30;63.05;100463.13;12153330;19;20032;-85
2022/11/16 02:29:15;;;;;;;17.05;11.18;;;9.60;63.40;;;8.30;63.16;100468.31;12151051;19;19926;-85
2022/11/16 02:33:24;;;;;;;15.90;11.27;;;9.50;62.70;;;8.24;63.24;100458.22;12155512;19;20038;-85
2022/11/16 02:37:32;;;;;;;16.38;10.93;;;9.50;62.90;;;8.31;63.17;100460.44;12152441;19;20026;-85
2022/11/16 02:41:38;;;;;;;21.58;10.48;;;9.50;63.00;;;8.24;63.23;100440.84;12150577;19;20035;-85
2022/11/16 02:45:46;;;;;;;22.23;13.20;;;9.50;62.80;;;8.21;63.17;100417.59;12154238;19;20520;-85
2022/11/16 02:49:57;;;;;;;15.70;11.38;;;9.50;63.30;;;8.25;63.36;100420.88;12159322;19;20383;-85
2022/11/16 02:54:15;;;;;;;18.70;12.20;;;9.50;63.20;;;8.24;63.41;100422.66;12154482;19;20015;-85
2022/11/16 02:58:24;;;;;;;20.63;12.48;;;9.50;63.30;;;8.14;63.18;100387.63;12157075;19;20018;-85
2022/11/16 03:02:40;;;;;;;17.95;10.88;;;9.40;63.30;;;8.26;63.37;100410.38;12161068;19;20582;-85
2022/11/16 03:06:47;;;;;;;17.25;11.88;;;9.40;63.30;;;8.18;63.30;100408.19;12157362;19;20019;-85
2022/11/16 03:15:23;;;;;;;23.08;15.23;;;9.40;63.80;;;8.14;63.48;100405.81;12153414;19;20352;-84
2022/11/16 03:19:47;;;;;;;24.10;14.02;;;9.40;64.40;;;8.20;63.58;100397.69;12156935;19;20307;-85
2022/11/16 03:23:50;;;;;;;20.73;13.87;;;9.40;64.30;;;8.20;63.68;100395.09;12154313;19;20022;-85
2022/11/16 03:28:32;;;;;;;23.10;14.32;;;9.40;64.10;;;8.16;63.37;100383.19;12163387;19;20294;-85
2022/11/16 03:33:21;;;;;;;19.77;13.00;;;9.40;64.40;;;8.17;63.60;100385.69;12159634;19;20047;-85
2022/11/16 03:37:26;;;;;;;18.95;12.20;;;9.50;64.50;;;8.27;63.73;100386.06;12173004;19;20318;-85
2022/11/16 03:41:30;;;;;;;18.90;12.20;;;9.70;64.40;;;8.05;63.55;100346.50;12174894;19;20019;-86
2022/11/16 03:45:32;;;;;;;22.98;14.30;;;9.50;64.10;;;8.30;63.63;100380.72;12171669;19;20014;-85
2022/11/16 03:49:34;;;;;;;26.27;16.48;;;9.50;64.40;;;8.32;63.58;100389.28;12165089;19;20584;-85
2022/11/16 03:53:37;;;;;;;24.80;15.85;;;9.50;64.70;;;8.32;63.62;100386.69;12162932;19;20468;-84
2022/11/16 03:57:39;;;;;;;27.27;16.23;;;9.60;64.50;;;8.33;63.63;100390.94;12153282;19;20024;-87
2022/11/16 04:01:41;;;;;;;23.38;15.50;;;9.70;65.00;;;8.46;63.88;100405.97;12154789;19;20019;-84
2022/11/16 04:40:40;;;;;;;30.15;15.60;;;9.80;65.10;;;8.56;63.93;100353.38;12159768;19;20022;-86
2022/11/16 04:49:21;;;;;;;27.88;14.50;;;9.90;65.20;;;8.71;63.89;100369.94;12167464;19;20870;-85
2022/11/16 04:53:25;;;;;;;32.22;16.20;;;9.90;65.10;;;8.64;64.09;100343.41;12169125;19;20887;-86
2022/11/16 04:57:39;;;;;;;28.02;15.02;;;9.90;65.10;;;8.71;64.11;100348.28;12163368;19;20594;-86
2022/11/16 05:06:02;;;;;;;25.73;14.30;;;10.00;64.90;;;8.77;64.01;100337.53;12163953;19;20013;-86
2022/11/16 05:10:06;;;;;;;29.75;17.00;;;10.00;64.90;;;8.71;64.05;100309.22;12165692;19;20018;-85
2022/11/16 05:14:09;;;;;;;30.38;15.63;;;10.00;65.10;;;8.80;63.87;100326.94;12165888;19;20022;-86
2022/11/16 05:18:12;;;;;;;32.03;18.87;;;10.10;64.80;;;8.86;63.92;100337.88;12161106;19;20080;-85
2022/11/16 05:22:14;;;;;;;37.55;18.98;;;10.10;65.50;;;8.92;63.96;100343.69;12151158;19;20791;-85
2022/11/16 05:26:17;;;;;;;32.80;17.67;;;10.10;65.10;;;8.91;64.10;100331.56;12151588;19;20030;-85
2022/11/16 05:30:19;;;;;;;36.45;18.15;;;10.20;65.20;;;8.84;63.95;100313.69;12154135;19;20333;-85
2022/11/16 05:34:21;;;;;;;31.73;15.02;;;10.20;65.30;;;8.67;64.22;100292.06;12148620;19;20046;-85
2022/11/16 05:38:23;;;;;;;32.15;15.77;;;10.20;65.10;;;8.99;64.21;100337.19;12151884;19;20453;-86
2022/11/16 05:42:30;;;;;;;33.85;17.27;;;10.20;64.90;;;8.85;64.18;100301.50;12155205;19;20606;-85
2022/11/16 05:46:33;;;;;;;31.55;16.33;;;10.40;64.90;;;8.85;64.11;100301.50;12156101;19;20797;-86
2022/11/16 05:50:36;;;;;;;33.75;16.40;;;10.30;64.80;;;9.07;64.04;100346.28;12153771;19;20033;-85
2022/11/16 05:54:44;;;;;;;32.15;16.38;;;10.60;65.10;;;9.03;64.06;100342.16;12151645;19;20303;-86
2022/11/16 05:58:47;;;;;;;28.08;14.82;;;10.40;64.90;;;9.16;64.11;100365.78;12162112;19;20054;-86
2022/11/16 06:02:49;;;;;;;32.58;17.15;;;10.40;64.70;;;9.21;64.05;100370.75;12157830;19;20018;-85
2022/11/16 06:06:57;;;;;;;33.10;16.52;;;10.50;64.80;;;8.97;64.12;100328.66;12159228;19;20026;-85
2022/11/16 06:11:07;;;;;;;35.20;16.38;;;10.40;64.80;;;9.24;64.11;100371.41;12159495;19;20027;-85
2022/11/16 06:15:11;;;;;;;49.13;20.38;;;10.40;64.50;;;9.25;64.03;100370.47;12147837;19;20426;-86
2022/11/16 06:19:12;;;;;;;34.85;16.83;;;10.50;65.20;;;9.29;64.04;100369.38;12156244;19;20398;-85
2022/11/16 06:23:15;;;;;;;36.20;17.92;;;10.50;64.90;;;9.28;64.13;100364.25;12154887;19;20050;-86
2022/11/16 06:27:17;;;;;;;38.83;17.27;;;10.70;65.10;;;9.27;64.02;100378.19;12164192;19;20144;-86
2022/11/16 06:31:21;;;;;;;37.08;16.33;;;10.50;64.90;;;9.28;64.28;100379.88;12169121;19;20018;-86
2022/11/16 06:35:22;;;;;;;32.25;15.40;;;10.50;64.80;;;9.21;64.19;100361.16;12154476;19;21056;-86
2022/11/16 06:39:24;;;;;;;34.33;15.77;;;10.50;64.70;;;9.26;64.11;100372.16;12163641;19;20030;-86
2022/11/16 06:43:27;;;;;;;38.50;17.33;;;10.50;64.70;;;9.37;64.27;100378.50;12166550;19;20019;-86
2022/11/16 06:47:30;;;;;;;34.55;16.98;;;10.60;64.80;;;9.38;64.15;100377.59;12175565;19;20590;-86
2022/11/16 06:51:33;;;;;;;37.63;18.70;;;10.60;64.60;;;9.41;64.26;100380.88;12168178;19;20025;-86
2022/11/16 06:55:35;;;;;;;41.17;18.20;;;10.60;65.10;;;9.28;64.12;100354.66;12163063;19;21123;-86
2022/11/16 06:59:38;;;;;;;38.20;17.67;;;10.50;64.80;;;9.33;64.06;100366.59;12133388;19;20908;-86
2022/11/16 07:03:40;;;;;;;39.42;17.02;;;10.60;64.90;;;9.42;64.31;100379.09;12136761;19;21180;-87
2022/11/16 07:07:43;;;;;;;39.05;18.02;;;10.60;64.80;;;9.47;64.27;100387.50;12161422;19;20895;-86
2022/11/16 07:11:45;;;;;;;44.63;19.08;;;10.60;64.90;;;9.31;64.13;100364.06;12168565;19;20395;-85
2022/11/16 07:15:49;;;;;;;34.03;17.05;;;10.70;64.90;;;9.49;64.27;100389.09;12153457;19;20383;-85
2022/11/16 07:19:51;;;;;;;39.33;17.55;;;10.70;64.80;;;9.53;64.15;100394.97;12156203;19;20033;-85
2022/11/16 07:23:53;;;;;;;40.05;17.45;;;10.70;64.80;;;9.52;64.31;100395.91;12156659;19;20397;-86
2022/11/16 07:27:57;;;;;;;44.00;19.00;;;10.70;64.80;;;9.46;64.21;100383.22;12168488;19;20023;-87
2022/11/16 07:31:59;;;;;;;48.70;22.70;;;10.70;64.80;;;9.56;64.22;100401.78;12169041;19;20848;-85
2022/11/16 07:36:24;;;;;;;42.45;18.17;;;10.80;65.30;;;9.49;64.36;100396.09;12151651;19;20343;-86
2022/11/16 07:40:28;;;;;;;43.00;19.23;;;10.80;65.00;;;9.23;64.37;100346.25;12163853;19;20023;-86
2022/11/16 07:44:31;;;;;;;43.90;19.15;;;10.80;65.00;;;9.59;64.38;100410.28;12169696;19;20387;-84
2022/11/16 07:48:44;;;;;;;42.30;19.15;;;10.80;65.10;;;9.60;64.34;100409.34;12170746;19;20446;-86
2022/11/16 07:52:45;;;;;;;39.08;17.73;;;10.80;65.20;;;9.44;64.37;100385.91;12165376;19;20378;-85
2022/11/16 07:57:05;;;;;;;38.95;17.30;;;10.70;65.00;;;9.29;64.30;100356.34;12161591;19;20018;-86
2022/11/16 08:01:11;;;;;;;38.85;16.30;;;10.80;64.80;;;9.59;64.32;100404.25;12163495;19;20019;-86
2022/11/16 08:05:12;;;;;;;33.47;16.55;;;10.80;64.90;;;9.58;64.34;100400.78;12172938;19;20331;-85
2022/11/16 08:09:15;;;;;;;36.60;15.63;;;10.80;64.80;;;9.60;64.22;100403.31;12170575;19;20019;-86
2022/11/16 08:13:17;;;;;;;38.63;18.70;;;10.80;64.90;;;9.58;64.34;100405.97;12170770;19;20018;-86
2022/11/16 08:17:19;;;;;;;33.40;15.48;;;10.80;64.90;;;9.55;64.42;100389.69;12169878;19;20022;-86
2022/11/16 08:21:21;;;;;;;35.47;16.50;;;10.80;64.70;;;9.62;64.44;100399.69;12170982;19;20015;-86
2022/11/16 08:25:24;;;;;;;41.55;18.83;;;10.80;64.80;;;9.53;64.41;100389.75;12155095;19;20385;-85
2022/11/16 08:29:26;;;;;;;39.60;19.45;;;10.90;65.00;;;9.52;64.21;100391.53;12173595;19;20015;-85
2022/11/16 08:33:30;;;;;;;30.77;15.95;;;10.80;65.80;;;9.51;64.42;100378.59;12170404;19;20014;-87
2022/11/16 08:37:33;;;;;;;30.25;14.82;;;10.80;64.70;;;9.60;64.30;100390.28;12170615;19;20409;-86
2022/11/16 08:41:36;;;;;;;36.70;16.65;;;10.80;64.80;;;9.61;64.45;100399.75;12172070;19;20058;-85
2022/11/16 08:45:40;;;;;;;31.92;15.15;;;10.80;65.00;;;9.58;64.45;100390.34;12163053;19;20037;-86
2022/11/16 08:49:41;;;;;;;37.13;17.35;;;10.80;64.90;;;9.59;64.39;100394.66;12165917;19;20098;-85
2022/11/16 08:53:46;;;;;;;28.55;14.75;;;10.80;65.00;;;9.57;64.56;100395.66;12164868;19;20010;-86
2022/11/16 08:57:48;;;;;;;26.33;13.40;;;10.80;64.80;;;9.37;64.35;100348.09;12170175;19;20019;-86
2022/11/16 09:01:53;;;;;;;33.80;14.77;;;10.70;64.70;;;9.50;64.51;100369.09;12164671;19;20379;-86
2022/11/16 09:05:54;;;;;;;31.55;15.70;;;10.80;64.90;;;9.45;64.31;100350.25;12178375;19;20014;-85
2022/11/16 09:09:56;;;;;;;28.48;14.52;;;10.70;65.00;;;9.60;64.38;100382.44;12173389;19;20011;-85
2022/11/16 09:13:58;;;;;;;33.15;15.45;;;10.80;64.90;;;9.52;64.37;100368.06;12172101;19;20368;-86
2022/11/16 09:18:00;;;;;;;26.70;13.25;;;10.90;65.20;;;9.50;64.53;100356.06;12171030;19;20010;-86
2022/11/16 09:22:03;;;;;;;26.35;12.52;;;10.80;65.00;;;9.58;64.39;100369.50;12174646;19;20545;-85
2022/11/16 09:26:05;;;;;;;28.98;11.98;;;10.70;64.80;;;9.51;64.55;100366.41;12172132;19;20018;-85
2022/11/16 09:30:08;;;;;;;24.08;11.90;;;10.70;64.90;;;9.48;64.36;100356.16;12167273;19;20023;-86
2022/11/16 09:34:10;;;;;;;21.85;11.07;;;10.80;65.20;;;9.62;64.42;100370.19;12166547;19;20114;-86
2022/11/16 09:38:12;;;;;;;23.02;11.73;;;10.70;65.10;;;9.57;64.43;100354.78;12166947;19;20022;-85
2022/11/16 09:43:04;;;;;;;21.85;10.15;;;10.80;64.90;;;9.53;64.46;100343.69;12162043;19;20026;-84
2022/11/16 09:47:22;;;;;;;17.85;9.02;;;10.80;65.30;;;9.52;64.38;100338.56;12091814;19;21031;-85
2022/11/16 09:51:31;;;;;;;17.35;9.77;;;10.80;65.10;;;9.59;64.44;100352.09;11965437;19;20018;-85
2022/11/16 09:56:03;;;;;;;19.40;10.27;;;10.80;65.10;;;9.53;64.50;100342.84;11978162;19;20018;-85
2022/11/16 10:00:16;;;;;;;15.60;8.93;;;10.70;65.30;;;9.26;64.53;100299.19;11986903;19;20597;-85
2022/11/16 10:04:45;;;;;;;16.77;8.68;;;10.70;65.40;;;9.38;64.42;100320.28;11979040;19;20683;-85
2022/11/16 10:08:52;;;;;;;19.85;10.13;;;10.70;65.20;;;9.47;64.49;100340.59;11983712;19;20012;-84
2022/11/16 10:13:30;;;;;;;23.80;13.13;;;10.90;65.60;;;9.10;64.55;100274.94;11988444;19;21810;-86
2022/11/16 10:18:06;;;;;;;20.30;10.57;;;10.60;65.40;;;9.40;64.45;100331.47;11974069;19;20011;-87
2022/11/16 10:23:06;;;;;;;21.52;11.45;;;10.60;65.30;;;9.36;64.50;100325.56;11983212;19;20487;-86
2022/11/16 10:27:45;;;;;;;20.08;9.95;;;10.60;65.30;;;9.38;64.71;100325.50;11983065;19;20794;-85
2022/11/16 10:32:02;;;;;;;18.65;10.98;;;10.60;64.90;;;9.33;64.63;100323.13;11986358;19;20018;-85
2022/11/16 10:36:13;;;;;;;16.42;9.57;;;10.60;64.90;;;9.41;64.63;100327.91;11971956;19;21114;-84
2022/11/16 10:40:39;;;;;;;17.92;10.63;;;10.60;64.70;;;9.33;64.41;100315.31;11967449;19;20372;-85
2022/11/16 10:44:58;;;;;;;15.45;9.65;;;10.60;65.40;;;9.30;64.67;100305.91;11979000;19;20046;-84
2022/11/16 10:49:29;;;;;;;22.30;13.18;;;10.60;64.70;;;9.33;64.59;100298.84;11975767;19;20025;-84
2022/11/16 10:53:40;;;;;;;20.00;11.18;;;10.60;64.80;;;9.27;64.68;100294.84;11975671;19;20400;-86
2022/11/16 10:58:00;;;;;;;21.60;12.15;;;10.60;64.40;;;9.29;64.55;100278.19;11996024;19;20772;-86
2022/11/16 11:02:36;;;;;;;19.05;12.13;;;10.60;64.30;;;9.34;64.42;100295.31;11980893;19;20602;-87
2022/11/16 11:06:39;;;;;;;16.92;11.35;;;10.60;64.10;;;9.32;64.59;100292.81;11993066;19;20165;-87
2022/11/16 11:10:41;;;;;;;18.63;10.93;;;10.60;64.00;;;9.30;64.62;100290.28;11998817;19;20022;-86
2022/11/16 11:15:06;;;;;;;19.50;12.38;;;10.50;63.90;;;9.40;64.61;100295.81;11966376;19;20022;-87
2022/11/16 11:19:37;;;;;;;18.92;11.00;;;10.50;63.90;;;9.13;64.50;100261.75;11970636;19;20025;-89
2022/11/16 11:23:51;;;;;;;15.82;9.95;;;10.60;63.70;;;9.34;64.58;100284.88;11985031;19;20018;-87
2022/11/16 11:28:34;;;;;;;16.38;10.68;;;10.60;63.60;;;9.44;64.40;100307.72;11990510;19;20802;-85
2022/11/16 11:32:39;;;;;;;17.73;10.98;;;10.60;63.70;;;9.45;64.60;100312.03;11982685;19;20053;-86
2022/11/16 11:37:02;;;;;;;18.60;11.23;;;10.60;63.40;;;9.27;64.54;100280.03;11992831;19;20019;-87
2022/11/16 11:41:04;;;;;;;18.23;11.18;;;10.60;63.30;;;9.40;64.69;100294.97;12007156;19;20310;-86
2022/11/16 11:45:12;;;;;;;17.17;9.88;;;10.70;63.30;;;9.33;64.50;100278.00;12010120;19;20018;-86
2022/11/16 11:49:30;;;;;;;19.83;11.70;;;10.60;63.20;;;9.40;64.41;100289.75;11997394;19;20264;-86
2022/11/16 11:53:58;;;;;;;15.85;10.30;;;10.70;63.20;;;9.45;64.32;100296.38;12112629;19;20015;-86
2022/11/16 11:58:03;;;;;;;16.98;11.25;;;10.70;63.20;;;9.26;64.50;100265.34;12109239;19;20014;-86
2022/11/16 12:02:38;;;;;;;19.65;11.63;;;10.70;63.20;;;9.50;64.27;100306.53;12002856;19;20850;-87
2022/11/16 12:07:16;;;;;;;18.83;11.20;;;10.70;62.90;;;9.45;64.31;100291.19;12008394;19;20021;-86
2022/11/16 12:11:53;;;;;;;22.23;12.40;;;10.70;62.80;;;9.44;64.33;100286.03;12012626;19;20631;-87
2022/11/16 12:16:33;;;;;;;21.25;12.30;;;10.70;62.80;;;9.45;64.34;100292.91;11983062;19;20278;-87
2022/11/16 12:21:22;;;;;;;19.48;11.38;;;10.70;62.90;;;9.47;64.44;100291.91;11997704;19;20415;-86
2022/11/16 12:25:57;;;;;;;17.33;11.18;;;10.70;62.90;;;9.50;64.36;100296.09;12001457;19;20014;-87
2022/11/16 12:30:17;;;;;;;18.67;11.32;;;10.70;62.70;;;9.51;64.24;100303.00;11999565;19;20042;-87
2022/11/16 12:34:51;;;;;;;19.88;13.05;;;10.70;62.60;;;9.51;64.21;100309.06;11961262;19;20018;-87
2022/11/16 12:39:09;;;;;;;16.95;11.27;;;10.70;62.40;;;9.54;64.30;100308.03;12011757;19;20855;-88
2022/11/16 12:43:20;;;;;;;16.83;10.45;;;10.70;62.50;;;9.56;64.38;100303.59;11997120;19;20018;-88
2022/11/16 12:47:55;;;;;;;17.48;11.52;;;10.80;62.50;;;9.51;64.29;100293.41;11984459;19;21020;-89
2022/11/16 12:52:30;;;;;;;19.08;11.55;;;10.80;62.20;;;9.56;64.39;100294.91;11983869;19;20419;-87
2022/11/16 12:57:00;;;;;;;16.98;10.68;;;10.80;62.20;;;9.55;64.18;100298.44;11991385;19;20874;-86
2022/11/16 13:01:35;;;;;;;16.73;11.13;;;10.80;62.20;;;9.49;64.09;100279.63;11980270;19;20019;-87
2022/11/16 13:05:53;;;;;;;15.07;10.27;;;10.80;62.10;;;9.63;64.22;100299.69;11979485;19;20605;-87
2022/11/16 13:10:14;;;;;;;16.08;11.07;;;10.80;62.10;;;9.61;64.13;100283.28;11988376;19;20022;-89
2022/11/16 13:14:38;;;;;;;12.75;9.68;;;10.80;61.80;;;9.67;64.18;100293.38;11980274;19;21104;-88
2022/11/16 13:18:41;;;;;;;16.15;10.73;;;10.90;61.90;;;9.67;64.22;100295.16;11984825;19;20422;-87
2022/11/16 13:22:58;;;;;;;14.48;10.65;;;10.90;61.80;;;9.64;64.13;100280.53;11978531;19;20022;-86
2022/11/16 13:27:22;;;;;;;14.23;9.48;;;10.90;61.50;;;9.58;64.32;100265.22;11983190;19;20056;-87
2022/11/16 13:31:41;;;;;;;17.50;10.82;;;10.90;61.50;;;9.70;64.17;100276.72;11977903;19;20033;-88
2022/11/16 13:35:43;;;;;;;15.00;9.20;;;10.90;61.40;;;9.62;64.09;100258.06;11972650;19;20851;-88
2022/11/16 13:39:57;;;;;;;14.35;9.85;;;10.90;61.30;;;9.75;64.04;100280.72;11982524;19;20019;-89
2022/11/16 13:44:01;;;;;;;14.07;9.63;;;10.90;61.20;;;9.68;64.26;100255.09;11983659;19;20026;-86
2022/11/16 13:48:18;;;;;;;16.77;9.60;;;11.00;61.20;;;9.67;63.99;100256.88;11986929;19;20936;-88
2022/11/16 13:52:20;;;;;;;12.10;8.02;;;11.00;61.20;;;9.70;64.25;100261.06;11988491;19;20058;-88
2022/11/16 13:56:22;;;;;;;13.90;9.00;;;11.00;61.10;;;9.80;64.13;100267.41;11985176;19;20017;-87
2022/11/16 14:00:35;;;;;;;14.20;9.27;;;11.00;61.00;;;9.77;64.11;100261.53;11981704;19;20598;-88
2022/11/16 14:05:12;;;;;;;12.10;8.98;;;11.00;60.80;;;9.73;63.98;100260.88;11977839;19;20027;-86
2022/11/16 14:09:47;;;;;;;13.68;9.20;;;11.00;61.00;;;9.64;64.00;100240.56;11974385;19;20037;-87
2022/11/16 14:13:49;;;;;;;12.07;8.70;;;11.00;60.60;;;9.86;64.06;100279.25;11967697;19;20033;-88
2022/11/16 14:17:51;;;;;;;11.23;8.10;;;11.00;60.80;;;9.86;63.91;100269.66;11982517;19;20026;-88
2022/11/16 14:22:06;;;;;;;11.10;8.18;;;11.00;60.80;;;9.83;63.87;100258.56;11990751;19;20630;-88
2022/11/16 14:26:23;;;;;;;10.98;7.70;;;11.00;60.80;;;9.87;63.95;100262.66;11988938;19;20014;-89
2022/11/16 14:30:31;;;;;;;10.43;7.60;;;11.00;60.80;;;9.83;63.81;100256.81;11984993;19;20014;-87
2022/11/16 14:34:43;;;;;;;11.95;8.25;;;11.10;60.90;;;9.77;64.14;100248.50;11971020;19;20674;-86
2022/11/16 14:38:45;;;;;;;9.73;7.70;;;11.20;60.90;;;9.84;64.05;100260.25;11970702;19;20019;-87
2022/11/16 14:43:01;;;;;;;9.50;6.93;;;11.00;60.80;;;9.87;63.87;100265.28;11955266;19;20026;-87
2022/11/16 14:47:03;;;;;;;11.80;8.32;;;11.10;60.90;;;9.62;63.95;100217.19;11972190;19;20022;-88
2022/11/16 14:51:21;;;;;;;13.70;7.78;;;11.10;60.90;;;9.80;63.92;100243.09;11974300;19;20022;-88
2022/11/16 14:55:25;;;;;;;14.13;9.32;;;11.10;60.80;;;9.82;63.79;100241.25;11967743;19;20015;-88
2022/11/16 14:59:29;;;;;;;13.48;8.45;;;11.10;60.50;;;9.80;63.84;100237.88;11972112;19;20372;-88
2022/11/16 15:03:47;;;;;;;12.57;8.07;;;11.00;60.40;;;9.69;63.97;100223.75;11973907;19;20138;-88
2022/11/16 15:07:55;;;;;;;10.20;7.88;;;11.10;60.60;;;9.80;63.77;100243.09;12049534;19;20398;-88
2022/11/16 15:16:20;;;;;;;11.85;8.07;;;11.00;60.40;;;9.58;63.67;100207.88;12161683;19;20010;-87
2022/11/16 15:20:24;;;;;;;17.25;9.27;;;11.00;60.50;;;9.75;63.81;100241.63;12165472;19;20010;-88
2022/11/16 15:24:33;;;;;;;12.80;8.67;;;11.00;60.50;;;9.81;63.93;100250.00;12162647;19;20022;-87
2022/11/16 15:28:36;;;;;;;11.60;8.02;;;11.00;60.60;;;9.62;63.65;100212.00;12166741;19;20019;-88
2022/11/16 15:32:42;;;;;;;13.20;9.07;;;11.00;60.60;;;9.69;63.72;100228.97;12175474;19;20022;-88
2022/11/16 15:36:43;;;;;;;12.32;7.47;;;11.00;60.50;;;9.72;63.68;100252.22;12172405;19;20014;-88
2022/11/16 15:40:57;;;;;;;12.25;8.48;;;11.00;60.70;;;9.78;63.63;100253.63;12174279;19;20074;-88
2022/11/16 15:45:05;;;;;;;10.60;7.50;;;11.00;60.30;;;9.70;63.88;100235.00;12163002;19;20052;-88
2022/11/16 15:49:32;;;;;;;11.13;8.38;;;10.90;60.30;;;9.69;63.71;100238.53;12159822;19;20050;-88
2022/11/16 15:53:45;;;;;;;11.77;6.47;;;10.90;60.00;;;9.75;63.84;100246.84;12159204;19;20117;-87
2022/11/16 15:58:26;;;;;;;10.95;7.28;;;10.90;60.40;;;9.74;63.64;100249.50;12164553;19;20033;-87
2022/11/16 16:02:30;;;;;;;8.15;6.90;;;10.90;60.40;;;9.69;63.91;100248.94;12166696;19;20758;-88
2022/11/16 16:06:47;;;;;;;10.07;7.15;;;10.90;60.20;;;9.61;63.61;100238.97;12163318;19;20025;-87
2022/11/16 16:11:02;;;;;;;9.35;6.50;;;10.90;60.30;;;9.48;63.71;100207.59;12161894;19;20015;-88
2022/11/16 16:15:35;;;;;;;10.55;7.35;;;10.90;60.30;;;9.66;63.70;100236.94;12168031;19;20029;-87
2022/11/16 16:19:44;;;;;;;9.10;6.38;;;10.90;60.40;;;9.45;63.77;100210.38;12170959;19;20710;-88
2022/11/16 16:23:55;;;;;;;9.95;6.60;;;11.00;60.60;;;9.49;63.88;100227.50;12163625;19;20117;-88
2022/11/16 16:27:57;;;;;;;10.43;7.10;;;10.80;60.60;;;9.58;63.78;100241.75;12167213;19;20015;-88
2022/11/16 16:31:59;;;;;;;9.80;6.28;;;10.80;60.80;;;9.29;63.71;100189.59;12172437;19;20018;-87
2022/11/16 16:36:01;;;;;;;9.80;7.05;;;10.80;60.90;;;9.61;63.61;100241.56;12163284;19;20022;-88
2022/11/16 16:40:04;;;;;;;12.05;8.48;;;10.80;61.00;;;9.54;63.54;100237.66;12165681;19;20347;-87
2022/11/16 16:44:14;;;;;;;9.50;7.50;;;10.80;60.70;;;9.33;63.67;100210.25;12161556;19;20014;-87
2022/11/16 16:48:15;;;;;;;10.10;7.35;;;10.80;60.70;;;9.40;63.60;100224.63;12169530;19;20015;-87
2022/11/16 16:52:17;;;;;;;7.80;6.03;;;10.70;60.70;;;9.53;63.65;100252.47;12169491;19;20019;-87
2022/11/16 16:56:19;;;;;;;12.02;6.10;;;10.70;60.80;;;9.48;63.71;100240.66;12161088;19;21282;-86
2022/11/16 17:00:20;;;;;;;7.88;5.82;;;10.70;60.90;;;9.49;63.85;100239.69;12159497;19;20407;-86
2022/11/16 17:04:22;;;;;;;9.23;6.70;;;10.70;60.80;;;9.44;63.72;100224.31;12160785;19;20011;-87
2022/11/16 17:08:23;;;;;;;10.02;7.18;;;10.70;60.60;;;9.55;63.70;100241.09;12160738;19;20053;-87
2022/11/16 17:12:25;;;;;;;9.93;6.30;;;10.70;60.60;;;9.45;63.77;100238.19;12166658;19;20030;-87
2022/11/16 17:16:27;;;;;;;15.98;7.35;;;10.70;60.60;;;9.30;63.91;100212.09;12161814;19;20022;-86
2022/11/16 17:20:28;;;;;;;9.60;7.07;;;10.60;60.20;;;9.47;63.64;100237.19;12160804;19;20026;-87
2022/11/16 17:24:30;;;;;;;9.60;7.07;;;10.60;60.20;;;9.44;63.74;100236.53;12158949;19;20372;-87
2022/11/16 17:28:32;;;;;;;11.13;6.95;;;10.70;60.20;;;9.09;63.55;100182.91;12160424;19;20011;-87
2022/11/16 17:32:34;;;;;;;8.55;6.00;;;10.60;60.40;;;9.43;63.74;100234.84;12163047;19;20610;-88
2022/11/16 17:36:36;;;;;;;8.05;5.15;;;10.60;60.50;;;9.45;63.61;100243.41;12169550;19;20021;-87
2022/11/16 17:40:38;;;;;;;7.68;6.00;;;10.60;60.40;;;9.44;63.90;100234.75;12166301;19;21061;-86
2022/11/16 17:44:39;;;;;;;7.93;5.82;;;10.60;60.40;;;9.45;63.87;100243.41;12164269;19;20399;-86
2022/11/16 17:48:44;;;;;;;8.13;6.00;;;10.60;60.40;;;9.47;63.70;100259.78;12167282;19;20299;-86
2022/11/16 17:52:45;;;;;;;8.38;5.93;;;10.60;60.20;;;9.45;63.62;100261.66;12166108;19;20022;-87
2022/11/16 17:56:50;;;;;;;9.50;5.90;;;10.70;60.20;;;9.41;63.93;100257.56;12164976;19;20036;-86
2022/11/16 18:00:51;;;;;;;7.15;5.40;;;10.70;60.20;;;9.47;63.57;100249.38;12159965;19;20018;-87
2022/11/16 18:04:53;;;;;;;7.07;4.93;;;10.70;60.00;;;9.15;63.52;100201.72;12157863;19;20813;-86